createdAt,value
2023-05-18T00:00:26.016Z,93086.00
2023-05-18T00:01:25.870Z,93088.00
2023-05-18T00:02:25.831Z,93090.00
2023-05-18T00:03:25.703Z,93088.00
2023-05-18T00:04:25.517Z,93088.00
2023-05-18T00:05:25.323Z,93090.00
2023-05-18T00:06:25.192Z,93090.00
2023-05-18T00:07:25.068Z,93088.00
2023-05-18T00:08:24.922Z,93090.00
2023-05-18T00:09:24.793Z,93092.00
2023-05-18T00:10:24.685Z,93088.00
2023-05-18T00:11:24.499Z,93088.00
2023-05-18T00:12:24.369Z,93088.00
2023-05-18T00:13:24.221Z,93088.00
2023-05-18T00:14:24.084Z,93088.00
2023-05-18T00:15:23.958Z,93088.00
2023-05-18T00:16:23.821Z,93086.00
2023-05-18T00:17:23.755Z,93088.00
2023-05-18T00:18:23.528Z,93086.00
2023-05-18T00:19:23.460Z,93084.00
2023-05-18T00:20:23.248Z,93084.00
2023-05-18T00:21:23.122Z,93086.00
2023-05-18T00:22:22.987Z,93086.00
2023-05-18T00:23:22.840Z,93086.00
2023-05-18T00:24:22.684Z,93086.00
2023-05-18T00:25:22.570Z,93084.00
2023-05-18T00:26:22.451Z,93082.00
2023-05-18T00:27:22.282Z,93082.00
2023-05-18T00:28:22.120Z,93082.00
2023-05-18T00:29:21.986Z,93081.00
2023-05-18T00:30:21.852Z,93082.00
2023-05-18T00:31:21.727Z,93081.00
2023-05-18T00:32:21.560Z,93081.00
2023-05-18T00:33:21.423Z,93081.00
2023-05-18T00:34:21.283Z,93082.00
2023-05-18T00:35:21.145Z,93081.00
2023-05-18T00:36:21.010Z,93077.00
2023-05-18T00:37:20.876Z,93077.00
2023-05-18T00:38:20.727Z,93079.00
2023-05-18T00:39:20.589Z,93077.00
2023-05-18T00:40:20.451Z,93075.00
2023-05-18T00:41:20.303Z,93075.00
2023-05-18T00:42:20.175Z,93077.00
2023-05-18T00:43:20.045Z,93073.00
2023-05-18T00:44:20.012Z,93073.00
2023-05-18T00:45:19.768Z,93073.00
2023-05-18T00:46:19.668Z,93071.00
2023-05-18T00:47:19.499Z,93071.00
2023-05-18T00:48:19.436Z,93071.00
2023-05-18T00:49:19.232Z,93071.00
2023-05-18T00:50:19.089Z,93071.00
2023-05-18T00:51:18.955Z,93069.00
2023-05-18T00:52:18.845Z,93069.00
2023-05-18T00:53:18.705Z,93067.00
2023-05-18T00:54:18.572Z,93069.00
2023-05-18T00:55:18.457Z,93069.00
2023-05-18T00:56:18.310Z,93067.00
2023-05-18T00:57:18.166Z,93067.00
2023-05-18T00:58:18.043Z,93065.00
2023-05-18T00:59:17.899Z,93065.00
2023-05-18T01:00:17.764Z,93067.00
2023-05-18T01:01:17.697Z,93065.00
2023-05-18T01:02:17.560Z,93063.00
2023-05-18T01:03:17.384Z,93061.00
2023-05-18T01:04:17.214Z,93063.00
2023-05-18T01:05:17.080Z,93063.00
2023-05-18T01:06:16.949Z,93061.00
2023-05-18T01:07:16.806Z,93063.00
2023-05-18T01:08:16.702Z,93061.00
2023-05-18T01:09:16.555Z,93061.00
2023-05-18T01:10:16.405Z,93061.00
2023-05-18T01:11:16.341Z,93061.00
2023-05-18T01:12:16.140Z,93059.00
2023-05-18T01:13:16.022Z,93057.00
2023-05-18T01:14:15.864Z,93057.00
2023-05-18T01:15:15.725Z,93057.00
2023-05-18T01:16:15.579Z,93055.00
2023-05-18T01:17:15.526Z,93055.00
2023-05-18T01:18:15.370Z,93055.00
2023-05-18T01:19:15.246Z,93053.00
2023-05-18T01:20:15.049Z,93051.00
2023-05-18T01:21:14.913Z,93053.00
2023-05-18T01:22:14.754Z,93051.00
2023-05-18T01:23:14.627Z,93051.00
2023-05-18T01:24:14.495Z,93051.00
2023-05-18T01:25:14.389Z,93051.00
2023-05-18T01:26:14.260Z,93051.00
2023-05-18T01:27:14.123Z,93051.00
2023-05-18T01:28:13.990Z,93049.00
2023-05-18T01:29:13.869Z,93051.00
2023-05-18T01:30:13.726Z,93049.00
2023-05-18T01:31:13.647Z,93047.00
2023-05-18T01:32:13.472Z,93049.00
2023-05-18T01:33:13.409Z,93047.00
2023-05-18T01:34:13.214Z,93045.00
2023-05-18T01:35:13.155Z,93045.00
2023-05-18T01:36:12.954Z,93045.00
2023-05-18T01:37:12.833Z,93043.00
2023-05-18T01:38:12.700Z,93045.00
2023-05-18T01:39:12.567Z,93045.00
2023-05-18T01:40:12.443Z,93047.00
2023-05-18T01:41:12.299Z,93043.00
2023-05-18T01:42:12.169Z,93045.00
2023-05-18T01:43:12.041Z,93043.00
2023-05-18T01:44:11.912Z,93041.00
2023-05-18T01:45:11.785Z,93043.00
2023-05-18T01:46:11.679Z,93043.00
2023-05-18T01:47:11.526Z,93043.00
2023-05-18T01:48:11.505Z,93041.00
2023-05-18T01:49:11.275Z,93035.00
2023-05-18T01:50:11.151Z,93035.00
2023-05-18T01:51:11.005Z,93039.00
2023-05-18T01:52:10.881Z,93032.00
2023-05-18T01:53:10.745Z,93032.00
2023-05-18T01:54:10.634Z,93032.00
2023-05-18T01:55:10.497Z,93034.00
2023-05-18T01:56:10.365Z,93028.00
2023-05-18T01:57:10.245Z,93028.00
2023-05-18T01:58:10.108Z,93028.00
2023-05-18T01:59:09.974Z,93028.00
2023-05-18T02:00:09.850Z,93028.00
2023-05-18T02:01:09.732Z,93028.00
2023-05-18T02:02:09.632Z,93028.00
2023-05-18T02:03:09.544Z,93026.00
2023-05-18T02:04:09.620Z,93026.00
2023-05-18T02:05:09.204Z,93026.00
2023-05-18T02:06:09.070Z,93028.00
2023-05-18T02:07:08.949Z,93024.00
2023-05-18T02:08:08.815Z,93024.00
2023-05-18T02:09:08.680Z,93024.00
2023-05-18T02:10:08.603Z,93026.00
2023-05-18T02:11:08.421Z,93022.00
2023-05-18T02:12:08.301Z,93022.00
2023-05-18T02:13:08.165Z,93020.00
2023-05-18T02:14:08.040Z,93020.00
2023-05-18T02:15:07.921Z,93020.00
2023-05-18T02:16:07.843Z,93018.00
2023-05-18T02:17:07.670Z,93014.00
2023-05-18T02:18:07.530Z,93018.00
2023-05-18T02:19:07.499Z,93014.00
2023-05-18T02:20:07.281Z,93014.00
2023-05-18T02:21:07.126Z,93012.00
2023-05-18T02:22:07.042Z,93016.00
2023-05-18T02:23:06.866Z,93014.00
2023-05-18T02:24:06.735Z,93014.00
2023-05-18T02:25:06.603Z,93012.00
2023-05-18T02:26:06.480Z,93014.00
2023-05-18T02:27:06.347Z,93010.00
2023-05-18T02:28:06.230Z,93016.00
2023-05-18T02:29:06.085Z,93014.00
2023-05-18T02:30:05.971Z,93010.00
2023-05-18T02:31:05.830Z,93012.00
2023-05-18T02:32:05.710Z,93012.00
2023-05-18T02:33:05.645Z,93012.00
2023-05-18T02:34:05.460Z,93012.00
2023-05-18T02:35:05.351Z,93012.00
2023-05-18T02:36:05.202Z,93012.00
2023-05-18T02:37:05.119Z,93008.00
2023-05-18T02:38:04.946Z,93008.00
2023-05-18T02:39:04.861Z,93010.00
2023-05-18T02:40:04.694Z,93006.00
2023-05-18T02:41:04.564Z,93008.00
2023-05-18T02:42:04.442Z,93006.00
2023-05-18T02:43:04.324Z,93006.00
2023-05-18T02:44:04.201Z,93008.00
2023-05-18T02:45:04.065Z,93006.00
2023-05-18T02:46:03.994Z,93006.00
2023-05-18T02:47:03.806Z,93004.00
2023-05-18T02:48:03.714Z,93004.00
2023-05-18T02:49:03.547Z,93004.00
2023-05-18T02:50:03.410Z,93002.00
2023-05-18T02:51:03.283Z,93002.00
2023-05-18T02:52:03.149Z,93000.00
2023-05-18T02:53:03.026Z,93002.00
2023-05-18T02:54:02.887Z,93002.00
2023-05-18T02:55:02.771Z,93002.00
2023-05-18T02:56:02.625Z,93000.00
2023-05-18T02:57:02.485Z,93000.00
2023-05-18T02:58:02.381Z,93004.00
2023-05-18T02:59:02.231Z,93004.00
2023-05-18T03:00:02.100Z,93002.00
2023-05-18T03:01:01.996Z,93004.00
2023-05-18T03:02:01.869Z,93004.00
2023-05-18T03:03:01.820Z,93004.00
2023-05-18T03:04:01.573Z,93004.00
2023-05-18T03:05:01.456Z,93004.00
2023-05-18T03:06:01.315Z,93006.00
2023-05-18T03:07:01.197Z,93006.00
2023-05-18T03:08:01.071Z,93004.00
2023-05-18T03:09:00.953Z,93006.00
2023-05-18T03:10:00.833Z,93004.00
2023-05-18T03:11:00.687Z,93006.00
2023-05-18T03:12:00.557Z,93008.00
2023-05-18T03:13:00.436Z,93006.00
2023-05-18T03:14:00.312Z,93008.00
2023-05-18T03:15:00.201Z,93010.00
2023-05-18T03:16:00.038Z,93008.00
2023-05-18T03:16:59.945Z,93004.00
2023-05-18T03:17:59.833Z,93004.00
2023-05-18T03:18:59.660Z,93002.00
2023-05-18T03:19:59.527Z,93004.00
2023-05-18T03:20:59.413Z,93006.00
2023-05-18T03:21:59.289Z,93008.00
2023-05-18T03:22:59.162Z,93006.00
2023-05-18T03:23:59.042Z,93006.00
2023-05-18T03:24:58.957Z,93002.00
2023-05-18T03:25:58.810Z,93006.00
2023-05-18T03:26:58.662Z,93006.00
2023-05-18T03:27:58.535Z,93004.00
2023-05-18T03:28:58.404Z,93008.00
2023-05-18T03:29:58.274Z,93008.00
2023-05-18T03:30:58.178Z,93008.00
2023-05-18T03:31:58.126Z,93006.00
2023-05-18T03:32:57.971Z,93010.00
2023-05-18T03:33:57.781Z,93008.00
2023-05-18T03:34:57.649Z,93008.00
2023-05-18T03:35:57.502Z,93008.00
2023-05-18T03:36:57.392Z,93008.00
2023-05-18T03:37:57.268Z,93004.00
2023-05-18T03:38:57.130Z,93008.00
2023-05-18T03:39:57.007Z,93012.00
2023-05-18T03:40:56.890Z,93008.00
2023-05-18T03:41:56.763Z,93008.00
2023-05-18T03:42:56.622Z,93012.00
2023-05-18T03:43:56.502Z,93010.00
2023-05-18T03:44:56.378Z,93012.00
2023-05-18T03:45:56.283Z,93012.00
2023-05-18T03:46:56.124Z,93018.00
2023-05-18T03:47:56.016Z,93016.00
2023-05-18T03:48:55.856Z,93018.00
2023-05-18T03:49:55.780Z,93018.00
2023-05-18T03:50:55.599Z,93018.00
2023-05-18T03:51:55.498Z,93016.00
2023-05-18T03:52:55.350Z,93018.00
2023-05-18T03:53:55.222Z,93020.00
2023-05-18T03:54:55.103Z,93018.00
2023-05-18T03:55:54.958Z,93018.00
2023-05-18T03:56:54.833Z,93018.00
2023-05-18T03:57:54.703Z,93016.00
2023-05-18T03:58:54.584Z,93014.00
2023-05-18T03:59:54.448Z,93012.00
2023-05-18T04:00:54.358Z,93012.00
2023-05-18T04:01:54.348Z,93008.00
2023-05-18T04:02:54.119Z,93014.00
2023-05-18T04:03:54.003Z,93010.00
2023-05-18T04:04:53.837Z,93014.00
2023-05-18T04:05:53.704Z,93014.00
2023-05-18T04:06:53.582Z,93010.00
2023-05-18T04:07:53.450Z,93018.00
2023-05-18T04:08:53.327Z,93016.00
2023-05-18T04:09:53.195Z,93020.00
2023-05-18T04:10:53.084Z,93018.00
2023-05-18T04:11:52.965Z,93022.00
2023-05-18T04:12:52.840Z,93026.00
2023-05-18T04:13:52.715Z,93024.00
2023-05-18T04:14:52.592Z,93026.00
2023-05-18T04:15:52.766Z,93020.00
2023-05-18T04:16:52.413Z,93026.00
2023-05-18T04:17:52.244Z,93026.00
2023-05-18T04:18:52.131Z,93024.00
2023-05-18T04:19:51.967Z,93022.00
2023-05-18T04:20:51.831Z,93026.00
2023-05-18T04:21:51.723Z,93026.00
2023-05-18T04:22:51.598Z,93024.00
2023-05-18T04:23:51.466Z,93022.00
2023-05-18T04:24:51.347Z,93022.00
2023-05-18T04:25:51.224Z,93022.00
2023-05-18T04:26:51.082Z,93020.00
2023-05-18T04:27:51.617Z,93022.00
2023-05-18T04:28:50.825Z,93018.00
2023-05-18T04:29:50.710Z,93022.00
2023-05-18T04:30:50.582Z,93020.00
2023-05-18T04:31:50.479Z,93018.00
2023-05-18T04:32:50.382Z,93022.00
2023-05-18T04:33:50.194Z,93020.00
2023-05-18T04:34:50.076Z,93024.00
2023-05-18T04:35:49.951Z,93020.00
2023-05-18T04:36:49.823Z,93022.00
2023-05-18T04:37:49.721Z,93018.00
2023-05-18T04:38:49.579Z,93020.00
2023-05-18T04:39:49.448Z,93020.00
2023-05-18T04:40:49.311Z,93022.00
2023-05-18T04:41:49.191Z,93020.00
2023-05-18T04:42:49.115Z,93018.00
2023-05-18T04:43:48.935Z,93018.00
2023-05-18T04:44:48.811Z,93020.00
2023-05-18T04:45:48.712Z,93022.00
2023-05-18T04:46:48.562Z,93018.00
2023-05-18T04:47:48.524Z,93022.00
2023-05-18T04:48:48.368Z,93016.00
2023-05-18T04:49:48.183Z,93022.00
2023-05-18T04:50:48.058Z,93020.00
2023-05-18T04:51:47.942Z,93022.00
2023-05-18T04:52:47.815Z,93018.00
2023-05-18T04:53:47.696Z,93022.00
2023-05-18T04:54:47.573Z,93018.00
2023-05-18T04:55:47.434Z,93026.00
2023-05-18T04:56:47.304Z,93024.00
2023-05-18T04:57:47.178Z,93024.00
2023-05-18T04:58:47.055Z,93026.00
2023-05-18T04:59:46.931Z,93026.00
2023-05-18T05:00:46.789Z,93026.00
2023-05-18T05:01:46.804Z,93030.00
2023-05-18T05:02:46.693Z,93030.00
2023-05-18T05:03:46.537Z,93030.00
2023-05-18T05:04:46.273Z,93028.00
2023-05-18T05:05:46.135Z,93030.00
2023-05-18T05:06:46.004Z,93026.00
2023-05-18T05:07:45.877Z,93032.00
2023-05-18T05:08:45.754Z,93030.00
2023-05-18T05:09:45.639Z,93032.00
2023-05-18T05:10:45.504Z,93030.00
2023-05-18T05:11:45.401Z,93032.00
2023-05-18T05:12:46.826Z,93030.00
2023-05-18T05:13:45.081Z,93030.00
2023-05-18T05:14:44.937Z,93028.00
2023-05-18T05:15:44.801Z,93032.00
2023-05-18T05:16:44.602Z,93032.00
2023-05-18T05:17:44.509Z,93030.00
2023-05-18T05:18:46.594Z,93030.00
2023-05-18T05:19:44.153Z,93034.00
2023-05-18T05:20:43.968Z,93032.00
2023-05-18T05:21:43.839Z,93034.00
2023-05-18T05:22:43.717Z,93028.00
2023-05-18T05:23:43.505Z,93032.00
2023-05-18T05:24:43.352Z,93030.00
2023-05-18T05:25:43.182Z,93028.00
2023-05-18T05:26:43.029Z,93034.00
2023-05-18T05:27:42.868Z,93032.00
2023-05-18T05:28:42.713Z,93030.00
2023-05-18T05:29:42.569Z,93030.00
2023-05-18T05:30:42.419Z,93030.00
2023-05-18T05:31:42.318Z,93030.00
2023-05-18T05:32:42.137Z,93030.00
2023-05-18T05:33:41.956Z,93028.00
2023-05-18T05:34:41.826Z,93034.00
2023-05-18T05:35:41.660Z,93030.00
2023-05-18T05:36:41.508Z,93030.00
2023-05-18T05:37:41.345Z,93028.00
2023-05-18T05:38:41.195Z,93026.00
2023-05-18T05:39:41.056Z,93024.00
2023-05-18T05:40:40.888Z,93028.00
2023-05-18T05:41:40.728Z,93028.00
2023-05-18T05:42:40.559Z,93026.00
2023-05-18T05:43:40.403Z,93026.00
2023-05-18T05:44:40.260Z,93028.00
2023-05-18T05:45:40.094Z,93028.00
2023-05-18T05:46:39.971Z,93030.00
2023-05-18T05:47:39.821Z,93030.00
2023-05-18T05:48:39.656Z,93028.00
2023-05-18T05:49:39.503Z,93028.00
2023-05-18T05:50:39.359Z,93028.00
2023-05-18T05:51:39.208Z,93030.00
2023-05-18T05:52:39.058Z,93028.00
2023-05-18T05:53:38.902Z,93030.00
2023-05-18T05:54:38.757Z,93034.00
2023-05-18T05:55:38.610Z,93034.00
2023-05-18T05:56:38.459Z,93034.00
2023-05-18T05:57:38.307Z,93035.00
2023-05-18T05:58:38.263Z,93034.00
2023-05-18T05:59:37.993Z,93034.00
2023-05-18T06:00:37.826Z,93034.00
2023-05-18T06:01:37.738Z,93035.00
2023-05-18T06:02:37.740Z,93034.00
2023-05-18T06:03:37.420Z,93035.00
2023-05-18T06:04:37.212Z,93035.00
2023-05-18T06:05:37.040Z,93035.00
2023-05-18T06:06:36.896Z,93032.00
2023-05-18T06:07:36.730Z,93034.00
2023-05-18T06:08:36.574Z,93034.00
2023-05-18T06:09:36.419Z,93035.00
2023-05-18T06:10:36.283Z,93035.00
2023-05-18T06:11:36.121Z,93035.00
2023-05-18T06:12:35.969Z,93037.00
2023-05-18T06:13:35.814Z,93035.00
2023-05-18T06:14:35.668Z,93037.00
2023-05-18T06:15:35.510Z,93041.00
2023-05-18T06:16:35.396Z,93039.00
2023-05-18T06:17:35.246Z,93041.00
2023-05-18T06:18:35.064Z,93043.00
2023-05-18T06:19:34.889Z,93041.00
2023-05-18T06:20:34.723Z,93041.00
2023-05-18T06:21:34.581Z,93043.00
2023-05-18T06:22:34.413Z,93041.00
2023-05-18T06:23:34.270Z,93043.00
2023-05-18T06:24:34.100Z,93043.00
2023-05-18T06:25:33.958Z,93043.00
2023-05-18T06:26:33.802Z,93039.00
2023-05-18T06:27:33.649Z,93041.00
2023-05-18T06:28:33.494Z,93039.00
2023-05-18T06:29:33.330Z,93041.00
2023-05-18T06:30:33.180Z,93039.00
2023-05-18T06:31:33.042Z,93043.00
2023-05-18T06:32:32.901Z,93041.00
2023-05-18T06:33:32.730Z,93039.00
2023-05-18T06:34:32.569Z,93043.00
2023-05-18T06:35:32.503Z,93041.00
2023-05-18T06:36:32.270Z,93043.00
2023-05-18T06:37:32.129Z,93043.00
2023-05-18T06:38:31.990Z,93043.00
2023-05-18T06:39:31.815Z,93045.00
2023-05-18T06:40:31.655Z,93043.00
2023-05-18T06:41:31.496Z,93039.00
2023-05-18T06:42:31.382Z,93043.00
2023-05-18T06:43:31.189Z,93043.00
2023-05-18T06:44:31.026Z,93039.00
2023-05-18T06:45:31.332Z,93041.00
2023-05-18T06:46:30.798Z,93041.00
2023-05-18T06:47:30.639Z,93039.00
2023-05-18T06:48:30.482Z,93037.00
2023-05-18T06:49:30.344Z,93039.00
2023-05-18T06:50:30.213Z,93039.00
2023-05-18T06:51:30.086Z,93039.00
2023-05-18T06:52:29.954Z,93039.00
2023-05-18T06:53:29.816Z,93039.00
2023-05-18T06:54:29.690Z,93037.00
2023-05-18T06:55:29.766Z,93037.00
2023-05-18T06:56:29.434Z,93037.00
2023-05-18T06:57:29.303Z,93039.00
2023-05-18T06:58:29.189Z,93039.00
2023-05-18T06:59:29.047Z,93037.00
2023-05-18T07:00:28.986Z,93035.00
2023-05-18T07:01:28.809Z,93035.00
2023-05-18T07:02:28.678Z,93034.00
2023-05-18T07:03:28.538Z,93035.00
2023-05-18T07:04:28.410Z,93039.00
2023-05-18T07:05:28.421Z,93037.00
2023-05-18T07:06:28.136Z,93037.00
2023-05-18T07:07:28.061Z,93039.00
2023-05-18T07:08:27.901Z,93039.00
2023-05-18T07:09:27.726Z,93039.00
2023-05-18T07:10:27.611Z,93037.00
2023-05-18T07:11:29.471Z,93041.00
2023-05-18T07:12:27.323Z,93039.00
2023-05-18T07:13:27.214Z,93039.00
2023-05-18T07:14:27.067Z,93041.00
2023-05-18T07:15:26.926Z,93041.00
2023-05-18T07:16:26.898Z,93039.00
2023-05-18T07:17:26.730Z,93041.00
2023-05-18T07:18:26.557Z,93041.00
2023-05-18T07:19:26.427Z,93039.00
2023-05-18T07:20:26.705Z,93041.00
2023-05-18T07:21:26.114Z,93039.00
2023-05-18T07:22:25.974Z,93043.00
2023-05-18T07:23:25.841Z,93037.00
2023-05-18T07:24:25.701Z,93039.00
2023-05-18T07:25:25.568Z,93037.00
2023-05-18T07:26:25.432Z,93041.00
2023-05-18T07:27:25.296Z,93041.00
2023-05-18T07:28:25.161Z,93043.00
2023-05-18T07:29:25.029Z,93041.00
2023-05-18T07:30:24.892Z,93041.00
2023-05-18T07:31:24.791Z,93043.00
2023-05-18T07:32:24.622Z,93039.00
2023-05-18T07:33:24.490Z,93039.00
2023-05-18T07:34:24.361Z,93039.00
2023-05-18T07:35:24.224Z,93041.00
2023-05-18T07:36:24.073Z,93041.00
2023-05-18T07:37:23.962Z,93041.00
2023-05-18T07:38:23.803Z,93039.00
2023-05-18T07:39:23.708Z,93039.00
2023-05-18T07:40:23.549Z,93037.00
2023-05-18T07:41:23.385Z,93037.00
2023-05-18T07:42:23.252Z,93037.00
2023-05-18T07:43:23.123Z,93037.00
2023-05-18T07:44:22.987Z,93037.00
2023-05-18T07:45:22.842Z,93037.00
2023-05-18T07:46:22.770Z,93037.00
2023-05-18T07:47:22.565Z,93037.00
2023-05-18T07:48:22.417Z,93034.00
2023-05-18T07:49:22.275Z,93035.00
2023-05-18T07:50:22.137Z,93034.00
2023-05-18T07:51:21.986Z,93034.00
2023-05-18T07:52:21.847Z,93034.00
2023-05-18T07:53:21.729Z,93035.00
2023-05-18T07:54:21.585Z,93032.00
2023-05-18T07:55:21.438Z,93034.00
2023-05-18T07:56:21.288Z,93037.00
2023-05-18T07:57:21.156Z,93037.00
2023-05-18T07:58:21.002Z,93034.00
2023-05-18T07:59:20.869Z,93035.00
2023-05-18T08:00:20.742Z,93035.00
2023-05-18T08:01:20.574Z,93035.00
2023-05-18T08:02:20.535Z,93035.00
2023-05-18T08:03:20.327Z,93035.00
2023-05-18T08:04:20.189Z,93035.00
2023-05-18T08:05:20.021Z,93034.00
2023-05-18T08:06:19.871Z,93034.00
2023-05-18T08:07:19.725Z,93034.00
2023-05-18T08:08:19.586Z,93032.00
2023-05-18T08:09:20.186Z,93032.00
2023-05-18T08:10:19.300Z,93032.00
2023-05-18T08:11:19.155Z,93034.00
2023-05-18T08:12:19.080Z,93034.00
2023-05-18T08:13:18.865Z,93034.00
2023-05-18T08:14:18.737Z,93034.00
2023-05-18T08:15:18.594Z,93034.00
2023-05-18T08:16:18.498Z,93034.00
2023-05-18T08:17:18.311Z,93035.00
2023-05-18T08:18:18.171Z,93035.00
2023-05-18T08:19:18.080Z,93034.00
2023-05-18T08:20:17.906Z,93037.00
2023-05-18T08:21:17.757Z,93034.00
2023-05-18T08:22:17.627Z,93037.00
2023-05-18T08:23:17.484Z,93037.00
2023-05-18T08:24:17.337Z,93039.00
2023-05-18T08:25:17.200Z,93039.00
2023-05-18T08:26:17.050Z,93037.00
2023-05-18T08:27:16.903Z,93039.00
2023-05-18T08:28:16.756Z,93041.00
2023-05-18T08:29:16.613Z,93041.00
2023-05-18T08:30:16.480Z,93043.00
2023-05-18T08:31:16.357Z,93043.00
2023-05-18T08:32:16.233Z,93043.00
2023-05-18T08:33:16.088Z,93041.00
2023-05-18T08:34:15.883Z,93043.00
2023-05-18T08:35:15.750Z,93043.00
2023-05-18T08:36:15.593Z,93047.00
2023-05-18T08:37:15.463Z,93045.00
2023-05-18T08:38:15.318Z,93045.00
2023-05-18T08:39:15.152Z,93043.00
2023-05-18T08:40:15.023Z,93043.00
2023-05-18T08:41:14.868Z,93039.00
2023-05-18T08:42:14.722Z,93043.00
2023-05-18T08:43:14.573Z,93041.00
2023-05-18T08:44:14.437Z,93045.00
2023-05-18T08:45:14.290Z,93043.00
2023-05-18T08:46:14.141Z,93039.00
2023-05-18T08:47:13.987Z,93043.00
2023-05-18T08:48:13.887Z,93045.00
2023-05-18T08:49:13.708Z,93045.00
2023-05-18T08:50:13.564Z,93045.00
2023-05-18T08:51:13.411Z,93051.00
2023-05-18T08:52:13.264Z,93049.00
2023-05-18T08:53:13.123Z,93047.00
2023-05-18T08:54:12.970Z,93049.00
2023-05-18T08:55:12.832Z,93045.00
2023-05-18T08:56:12.700Z,93049.00
2023-05-18T08:57:12.541Z,93045.00
2023-05-18T08:58:12.401Z,93045.00
2023-05-18T08:59:12.259Z,93041.00
2023-05-18T09:00:12.125Z,93041.00
2023-05-18T09:01:11.997Z,93041.00
2023-05-18T09:02:11.885Z,93039.00
2023-05-18T09:03:11.775Z,93039.00
2023-05-18T09:04:11.535Z,93035.00
2023-05-18T09:05:11.451Z,93034.00
2023-05-18T09:06:11.245Z,93034.00
2023-05-18T09:07:11.124Z,93034.00
2023-05-18T09:08:10.954Z,93032.00
2023-05-18T09:09:10.821Z,93032.00
2023-05-18T09:10:10.684Z,93032.00
2023-05-18T09:11:10.540Z,93028.00
2023-05-18T09:12:10.395Z,93028.00
2023-05-18T09:13:10.303Z,93026.00
2023-05-18T09:14:10.093Z,93026.00
2023-05-18T09:15:09.965Z,93026.00
2023-05-18T09:16:09.903Z,93026.00
2023-05-18T09:17:09.687Z,93028.00
2023-05-18T09:18:09.602Z,93026.00
2023-05-18T09:19:09.441Z,93026.00
2023-05-18T09:20:09.270Z,93026.00
2023-05-18T09:21:09.137Z,93026.00
2023-05-18T09:22:09.794Z,93026.00
2023-05-18T09:23:08.833Z,93032.00
2023-05-18T09:24:08.723Z,93028.00
2023-05-18T09:25:08.592Z,93032.00
2023-05-18T09:26:08.513Z,93028.00
2023-05-18T09:27:08.460Z,93028.00
2023-05-18T09:28:08.358Z,93030.00
2023-05-18T09:29:08.229Z,93028.00
2023-05-18T09:30:08.115Z,93030.00
2023-05-18T09:31:08.019Z,93030.00
2023-05-18T09:32:07.860Z,93030.00
2023-05-18T09:33:07.759Z,93030.00
2023-05-18T09:34:07.573Z,93028.00
2023-05-18T09:35:07.392Z,93028.00
2023-05-18T09:36:07.269Z,93026.00
2023-05-18T09:37:07.166Z,93028.00
2023-05-18T09:38:07.008Z,93026.00
2023-05-18T09:39:06.890Z,93024.00
2023-05-18T09:40:06.796Z,93026.00
2023-05-18T09:41:06.562Z,93024.00
2023-05-18T09:42:06.426Z,93018.00
2023-05-18T09:43:06.273Z,93022.00
2023-05-18T09:44:06.118Z,93022.00
2023-05-18T09:45:05.970Z,93022.00
2023-05-18T09:46:05.838Z,93026.00
2023-05-18T09:47:05.759Z,93024.00
2023-05-18T09:48:05.612Z,93022.00
2023-05-18T09:49:05.399Z,93020.00
2023-05-18T09:50:05.278Z,93024.00
2023-05-18T09:51:05.091Z,93020.00
2023-05-18T09:52:04.945Z,93018.00
2023-05-18T09:53:04.805Z,93020.00
2023-05-18T09:54:04.666Z,93024.00
2023-05-18T09:55:04.505Z,93024.00
2023-05-18T09:56:04.351Z,93022.00
2023-05-18T09:57:10.772Z,93022.00
2023-05-18T09:58:05.051Z,93020.00
2023-05-18T09:59:03.906Z,93018.00
2023-05-18T10:00:03.753Z,93020.00
2023-05-18T10:01:03.650Z,93020.00
2023-05-18T10:02:03.427Z,93020.00
2023-05-18T10:03:03.309Z,93018.00
2023-05-18T10:04:03.164Z,93018.00
2023-05-18T10:05:02.967Z,93016.00
2023-05-18T10:06:02.806Z,93016.00
2023-05-18T10:07:02.647Z,93016.00
2023-05-18T10:08:02.490Z,93018.00
2023-05-18T10:09:02.330Z,93016.00
2023-05-18T10:10:02.223Z,93014.00
2023-05-18T10:11:02.042Z,93014.00
2023-05-18T10:12:01.862Z,93014.00
2023-05-18T10:13:01.699Z,93010.00
2023-05-18T10:14:01.552Z,93008.00
2023-05-18T10:15:01.390Z,93012.00
2023-05-18T10:16:01.241Z,93010.00
2023-05-18T10:17:14.303Z,93006.00
2023-05-18T10:18:01.950Z,93010.00
2023-05-18T10:19:00.791Z,93010.00
2023-05-18T10:20:00.609Z,93008.00
2023-05-18T10:21:00.637Z,93006.00
2023-05-18T10:22:00.288Z,93008.00
2023-05-18T10:23:00.172Z,93006.00
2023-05-18T10:23:59.958Z,93008.00
2023-05-18T10:24:59.802Z,93010.00
2023-05-18T10:25:59.651Z,93008.00
2023-05-18T10:26:59.485Z,93006.00
2023-05-18T10:27:59.330Z,93008.00
2023-05-18T10:28:59.172Z,93002.00
2023-05-18T10:29:59.019Z,93008.00
2023-05-18T10:30:58.922Z,93006.00
2023-05-18T10:32:01.510Z,93006.00
2023-05-18T10:32:58.659Z,93008.00
2023-05-18T10:33:58.357Z,93008.00
2023-05-18T10:34:58.214Z,93010.00
2023-05-18T10:35:58.103Z,93006.00
2023-05-18T10:36:57.891Z,93010.00
2023-05-18T10:37:57.729Z,93008.00
2023-05-18T10:38:57.559Z,93010.00
2023-05-18T10:39:57.394Z,93008.00
2023-05-18T10:40:57.241Z,93010.00
2023-05-18T10:41:57.070Z,93008.00
2023-05-18T10:42:56.924Z,93012.00
2023-05-18T10:43:56.774Z,93010.00
2023-05-18T10:44:56.633Z,93012.00
2023-05-18T10:45:56.529Z,93012.00
2023-05-18T10:46:56.433Z,93010.00
2023-05-18T10:47:56.829Z,93010.00
2023-05-18T10:48:55.982Z,93008.00
2023-05-18T10:49:55.831Z,93012.00
2023-05-18T10:50:55.689Z,93008.00
2023-05-18T10:51:55.507Z,93006.00
2023-05-18T10:52:55.364Z,93008.00
2023-05-18T10:53:56.216Z,93006.00
2023-05-18T10:54:55.051Z,93008.00
2023-05-18T10:55:54.901Z,93008.00
2023-05-18T10:56:54.724Z,93006.00
2023-05-18T10:57:54.575Z,93006.00
2023-05-18T10:58:54.400Z,93002.00
2023-05-18T10:59:54.255Z,93004.00
2023-05-18T11:00:54.103Z,93002.00
2023-05-18T11:01:53.969Z,93002.00
2023-05-18T11:02:53.817Z,93000.00
2023-05-18T11:03:53.620Z,93000.00
2023-05-18T11:04:54.242Z,92998.00
2023-05-18T11:05:53.343Z,92998.00
2023-05-18T11:06:53.254Z,93000.00
2023-05-18T11:07:53.143Z,92998.00
2023-05-18T11:08:53.034Z,92996.00
2023-05-18T11:09:52.924Z,92996.00
2023-05-18T11:10:52.822Z,92998.00
2023-05-18T11:11:52.704Z,92998.00
2023-05-18T11:12:52.590Z,92998.00
2023-05-18T11:13:52.486Z,92996.00
2023-05-18T11:14:52.323Z,92998.00
2023-05-18T11:15:52.219Z,92996.00
2023-05-18T11:16:52.100Z,92994.00
2023-05-18T11:17:51.957Z,92992.00
2023-05-18T11:18:52.024Z,92994.00
2023-05-18T11:19:51.734Z,92994.00
2023-05-18T11:20:51.642Z,92994.00
2023-05-18T11:21:51.542Z,92992.00
2023-05-18T11:22:51.504Z,92992.00
2023-05-18T11:23:51.312Z,92992.00
2023-05-18T11:24:51.196Z,92988.00
2023-05-18T11:25:51.120Z,92990.00
2023-05-18T11:26:50.992Z,92992.00
2023-05-18T11:27:50.845Z,92990.00
2023-05-18T11:28:50.739Z,92994.00
2023-05-18T11:29:57.862Z,92994.00
2023-05-18T11:30:51.427Z,92990.00
2023-05-18T11:31:50.301Z,92990.00
2023-05-18T11:32:50.160Z,92990.00
2023-05-18T11:33:49.941Z,92994.00
2023-05-18T11:34:49.803Z,92990.00
2023-05-18T11:35:49.621Z,92990.00
2023-05-18T11:36:49.461Z,92988.00
2023-05-18T11:37:49.299Z,92990.00
2023-05-18T11:38:49.140Z,92990.00
2023-05-18T11:39:58.383Z,92992.00
2023-05-18T11:40:49.807Z,92990.00
2023-05-18T11:41:48.656Z,92990.00
2023-05-18T11:42:48.485Z,92988.00